Главная страница
METAR-TAF:

METAR-TAF

Аэропорты :

Оушен округ, Нью-Джерси, США

широта: 39-55-39N, долгота: 074-17-33W, высота над уровнем моря: 25 м

Текущие метеонаблюдения

Эта сводка был подготовлена 55 минут назад, в 01:56 UTC
Ветер 9 Узел от северо-западный
Температура -2°C
Влажность 54%
Давление 1021 hPa
Видимость: 16.1 км
ясное небо

METAR: KMJX 130156Z AUTO 32009KT 10SM CLR M02/M10 A3015 RMK AO2 SLP213 T10221100 FZRANO

Время: 21:51 (02:51 UTC)


TAF: отсутствует

Метеонаблюдения и прогнозы для более 4000 аэропортов (сводки METAR и TAF).

Имеющиеся станции представлены на карте желтыми и красными точками.

Чтобы увидеть название станции, наведите на нее мышь.

Затем щелкните, чтобы увидеть метеонаблюдения и метеопрогнозы.

Управление картой: чтобы увеличить масштаб, щелкните зеленые кнопки с черным крестиком; чтобы уменьшить масштаб, щелкните зеленую кнопку с тире; для просмотра соседних карт щелкайте зеленые стрелки.


METAR-TAF: